createdAt,value
2018-02-21T00:01:34.622Z,99884.92
2018-02-21T00:04:02.195Z,99886.67
2018-02-21T00:06:29.762Z,99888.78
2018-02-21T00:08:57.376Z,99886.44
2018-02-21T00:11:24.951Z,99892.33
2018-02-21T00:13:52.520Z,99892.22
2018-02-21T00:16:20.081Z,99880.55
2018-02-21T00:18:47.647Z,99888.47
2018-02-21T00:21:15.218Z,99887.50
2018-02-21T00:23:42.779Z,99889.05
2018-02-21T00:26:10.398Z,99884.17
2018-02-21T00:28:38.018Z,99888.39
2018-02-21T00:31:05.656Z,99887.05
2018-02-21T00:33:33.295Z,99888.67
2018-02-21T00:36:00.866Z,99889.41
2018-02-21T00:38:28.447Z,99886.63
2018-02-21T00:40:55.994Z,99883.97
2018-02-21T00:43:23.610Z,99879.66
2018-02-21T00:45:51.167Z,99872.92
2018-02-21T00:48:18.730Z,99869.59
2018-02-21T00:50:46.364Z,99865.34
2018-02-21T00:53:13.951Z,99859.80
2018-02-21T00:55:41.545Z,99864.37
2018-02-21T00:58:09.118Z,99859.06
2018-02-21T01:00:36.746Z,99861.38
2018-02-21T01:03:04.319Z,99858.50
2018-02-21T01:05:31.882Z,99861.14
2018-02-21T01:07:59.515Z,99860.05
2018-02-21T01:10:27.078Z,99868.30
2018-02-21T01:12:54.711Z,99867.80
2018-02-21T01:15:22.278Z,99861.06
2018-02-21T01:17:49.913Z,99858.30
2018-02-21T01:20:17.482Z,99862.72
2018-02-21T01:22:45.135Z,99856.34
2018-02-21T01:25:12.740Z,99857.63
2018-02-21T01:27:40.299Z,99856.47
2018-02-21T01:30:07.925Z,99852.69
2018-02-21T01:32:35.562Z,99851.84
2018-02-21T01:35:03.128Z,99846.93
2018-02-21T01:37:30.690Z,99841.07
2018-02-21T01:39:58.314Z,99839.39
2018-02-21T01:42:25.948Z,99843.17
2018-02-21T01:44:53.508Z,99847.84
2018-02-21T01:47:21.135Z,99841.10
2018-02-21T01:49:48.704Z,99828.72
2018-02-21T01:52:16.284Z,99831.84
2018-02-21T01:54:43.846Z,99833.28
2018-02-21T01:57:11.471Z,99836.41
2018-02-21T01:59:39.026Z,99836.23
2018-02-21T02:02:06.654Z,99841.52
2018-02-21T02:04:34.279Z,99840.82
2018-02-21T02:07:01.852Z,99845.35
2018-02-21T02:09:29.494Z,99844.19
2018-02-21T02:11:57.121Z,99838.55
2018-02-21T02:14:24.687Z,99842.19
2018-02-21T02:16:52.231Z,99839.48
2018-02-21T02:19:19.829Z,99843.00
2018-02-21T02:21:47.450Z,99835.84
2018-02-21T02:24:15.016Z,99838.92
2018-02-21T02:26:42.588Z,99830.47
2018-02-21T02:29:10.208Z,99831.31
2018-02-21T02:31:37.779Z,99826.05
2018-02-21T02:34:05.402Z,99821.98
2018-02-21T02:36:33.014Z,99821.46
2018-02-21T02:39:12.275Z,99819.31
2018-02-21T02:41:39.846Z,99814.48
2018-02-21T02:44:07.476Z,99816.13
2018-02-21T02:46:35.162Z,99811.60
2018-02-21T02:49:02.732Z,99815.81
2018-02-21T02:51:30.356Z,99811.28
2018-02-21T02:53:57.927Z,99811.53
2018-02-21T02:56:25.549Z,99813.81
2018-02-21T02:58:53.235Z,99810.20
2018-02-21T03:01:20.803Z,99816.02
2018-02-21T03:03:48.369Z,99811.11
2018-02-21T03:06:15.991Z,99807.50
2018-02-21T03:08:43.624Z,99807.91
2018-02-21T03:11:11.244Z,99806.80
2018-02-21T03:13:38.864Z,99804.55
2018-02-21T03:16:06.431Z,99802.80
2018-02-21T03:18:34.063Z,99807.28
2018-02-21T03:21:01.629Z,99799.22
2018-02-21T03:23:29.251Z,99799.95
2018-02-21T03:25:56.806Z,99796.16
2018-02-21T03:28:24.362Z,99793.50
2018-02-21T03:30:51.950Z,99794.02
2018-02-21T03:33:19.571Z,99798.61
2018-02-21T03:35:47.186Z,99801.07
2018-02-21T03:38:14.790Z,99802.33
2018-02-21T03:40:42.355Z,99800.02
2018-02-21T03:43:09.937Z,99797.35
2018-02-21T03:45:37.553Z,99792.38
2018-02-21T03:48:05.226Z,99796.80
2018-02-21T03:50:32.786Z,99796.44
2018-02-21T03:53:00.364Z,99797.77
2018-02-21T03:55:27.940Z,99793.64
2018-02-21T03:57:55.558Z,99788.69
2018-02-21T04:00:23.170Z,99787.63
2018-02-21T04:02:50.708Z,99792.61
2018-02-21T04:05:18.285Z,99787.91
2018-02-21T04:07:45.851Z,99784.31
2018-02-21T04:10:13.411Z,99777.51
2018-02-21T04:12:41.091Z,99775.02
2018-02-21T04:15:08.671Z,99779.61
2018-02-21T04:17:36.330Z,99781.72
2018-02-21T04:20:04.019Z,99783.26
2018-02-21T04:22:31.664Z,99785.11
2018-02-21T04:24:59.347Z,99786.58
2018-02-21T04:27:26.993Z,99789.85
2018-02-21T04:29:54.746Z,99787.81
2018-02-21T04:32:22.318Z,99789.47
2018-02-21T04:34:49.878Z,99784.70
2018-02-21T04:37:17.500Z,99780.60
2018-02-21T04:39:45.111Z,99782.91
2018-02-21T04:42:12.732Z,99781.09
2018-02-21T04:44:40.314Z,99784.97
2018-02-21T04:47:07.928Z,99782.94
2018-02-21T04:49:35.599Z,99782.94
2018-02-21T04:52:03.139Z,99791.70
2018-02-21T04:57:37.587Z,99787.17
2018-02-21T05:00:05.235Z,99795.27
2018-02-21T05:02:32.843Z,99791.14
2018-02-21T05:05:00.433Z,99795.48
2018-02-21T05:07:27.999Z,99796.16
2018-02-21T05:09:55.558Z,99803.06
2018-02-21T05:12:23.188Z,99804.78
2018-02-21T05:14:50.751Z,99813.16
2018-02-21T05:17:18.313Z,99806.42
2018-02-21T05:19:45.888Z,99811.35
2018-02-21T05:22:13.500Z,99813.03
2018-02-21T05:24:41.130Z,99811.61
2018-02-21T05:27:08.748Z,99817.23
2018-02-21T05:29:36.421Z,99821.09
2018-02-21T05:32:04.008Z,99821.66
2018-02-21T05:34:31.647Z,99828.74
2018-02-21T05:36:59.292Z,99831.80
2018-02-21T05:39:26.898Z,99833.91
2018-02-21T05:41:54.562Z,99835.17
2018-02-21T05:44:22.161Z,99838.79
2018-02-21T05:46:49.739Z,99840.48
2018-02-21T05:49:17.369Z,99843.89
2018-02-21T05:51:44.935Z,99841.25
2018-02-21T05:54:12.561Z,99836.17
2018-02-21T05:56:40.217Z,99838.42
2018-02-21T05:59:07.797Z,99840.25
2018-02-21T06:01:35.375Z,99844.88
2018-02-21T06:04:03.056Z,99843.45
2018-02-21T06:06:30.637Z,99843.48
2018-02-21T06:08:58.219Z,99844.16
2018-02-21T06:11:25.854Z,99842.30
2018-02-21T06:13:53.452Z,99844.61
2018-02-21T06:16:21.023Z,99837.69
2018-02-21T06:18:48.684Z,99837.02
2018-02-21T06:21:16.255Z,99839.01
2018-02-21T06:23:43.896Z,99853.44
2018-02-21T06:26:11.548Z,99849.70
2018-02-21T06:28:39.135Z,99847.01
2018-02-21T06:31:06.718Z,99849.61
2018-02-21T06:33:34.318Z,99859.22
2018-02-21T06:36:01.919Z,99859.87
2018-02-21T06:38:29.578Z,99856.77
2018-02-21T06:40:57.256Z,99854.92
2018-02-21T06:43:24.907Z,99849.89
2018-02-21T06:45:52.864Z,99853.86
2018-02-21T06:48:20.456Z,99856.36
2018-02-21T06:50:48.027Z,99854.11
2018-02-21T06:53:15.674Z,99856.67
2018-02-21T06:55:43.270Z,99854.81
2018-02-21T06:58:10.855Z,99857.64
2018-02-21T07:00:38.512Z,99853.94
2018-02-21T07:03:06.108Z,99860.97
2018-02-21T07:05:33.682Z,99862.06
2018-02-21T07:08:01.342Z,99863.72
2018-02-21T07:10:28.988Z,99862.95
2018-02-21T07:12:56.623Z,99860.42
2018-02-21T07:15:24.297Z,99861.54
2018-02-21T07:17:51.888Z,99860.96
2018-02-21T07:20:19.579Z,99864.28
2018-02-21T07:22:47.179Z,99865.95
2018-02-21T07:25:14.728Z,99860.48
2018-02-21T07:27:42.362Z,99870.39
2018-02-21T07:30:10.013Z,99867.47
2018-02-21T07:32:37.709Z,99866.31
2018-02-21T07:35:05.284Z,99867.23
2018-02-21T07:37:32.864Z,99867.20
2018-02-21T07:40:00.454Z,99866.92
2018-02-21T07:42:28.075Z,99871.94
2018-02-21T07:44:55.770Z,99871.80
2018-02-21T07:47:23.410Z,99870.94
2018-02-21T07:49:50.998Z,99868.83
2018-02-21T07:52:18.591Z,99876.58
2018-02-21T07:54:46.231Z,99877.11
2018-02-21T07:57:13.944Z,99872.93
2018-02-21T07:59:41.587Z,99864.56
2018-02-21T08:02:09.228Z,99864.03
2018-02-21T08:04:36.903Z,99856.78
2018-02-21T08:07:04.564Z,99859.57
2018-02-21T08:09:32.221Z,99860.56
2018-02-21T08:11:59.965Z,99848.48
2018-02-21T08:14:27.609Z,99848.05
2018-02-21T08:16:55.172Z,99849.20
2018-02-21T08:19:22.814Z,99848.72
2018-02-21T08:21:50.468Z,99850.61
2018-02-21T08:24:18.122Z,99843.28
2018-02-21T08:26:45.833Z,99849.77
2018-02-21T08:29:13.489Z,99844.70
2018-02-21T08:31:41.152Z,99848.06
2018-02-21T08:34:08.857Z,99841.27
2018-02-21T08:36:36.553Z,99846.28
2018-02-21T08:39:04.326Z,99834.23
2018-02-21T08:41:32.025Z,99844.47
2018-02-21T08:43:59.612Z,99848.29
2018-02-21T08:46:27.273Z,99839.58
2018-02-21T08:48:54.906Z,99847.27
2018-02-21T08:51:22.493Z,99842.25
2018-02-21T08:53:50.531Z,99837.92
2018-02-21T08:56:18.191Z,99839.03
2018-02-21T08:58:46.079Z,99841.48
2018-02-21T09:01:13.652Z,99839.61
2018-02-21T09:03:41.351Z,99840.36
2018-02-21T09:06:08.917Z,99848.04
2018-02-21T09:08:36.499Z,99852.12
2018-02-21T09:11:04.410Z,99848.03
2018-02-21T09:13:31.986Z,99852.57
2018-02-21T09:15:59.564Z,99849.30
2018-02-21T09:18:27.201Z,99854.73
2018-02-21T09:20:54.774Z,99856.69
2018-02-21T09:23:22.355Z,99854.30
2018-02-21T09:25:49.994Z,99858.05
2018-02-21T09:28:17.644Z,99855.16
2018-02-21T09:30:45.217Z,99852.63
2018-02-21T09:33:12.856Z,99851.13
2018-02-21T09:35:40.426Z,99847.87
2018-02-21T09:38:08.026Z,99851.41
2018-02-21T09:40:35.653Z,99850.61
2018-02-21T09:43:03.244Z,99845.03
2018-02-21T09:45:30.875Z,99847.05
2018-02-21T09:47:58.560Z,99848.43
2018-02-21T09:50:26.116Z,99845.83
2018-02-21T09:52:53.682Z,99833.64
2018-02-21T09:55:21.361Z,99840.98
2018-02-21T09:57:48.940Z,99839.83
2018-02-21T10:00:16.509Z,99837.88
2018-02-21T10:02:44.130Z,99836.62
2018-02-21T10:05:11.759Z,99831.88
2018-02-21T10:07:39.337Z,99827.69
2018-02-21T10:10:06.976Z,99837.72
2018-02-21T10:12:34.549Z,99835.32
2018-02-21T10:15:02.129Z,99827.30
2018-02-21T10:17:29.765Z,99834.25
2018-02-21T10:19:57.336Z,99832.27
2018-02-21T10:22:24.914Z,99833.41
2018-02-21T10:24:52.554Z,99833.61
2018-02-21T10:27:20.136Z,99830.47
2018-02-21T10:29:47.724Z,99828.48
2018-02-21T10:32:15.427Z,99826.61
2018-02-21T10:34:43.674Z,99816.41
2018-02-21T10:37:11.252Z,99818.23
2018-02-21T10:39:38.895Z,99815.48
2018-02-21T10:42:07.175Z,99824.38
2018-02-21T10:44:34.745Z,99824.41
2018-02-21T10:47:02.378Z,99814.22
2018-02-21T10:49:30.055Z,99822.00
2018-02-21T10:51:58.096Z,99828.97
2018-02-21T10:54:25.784Z,99819.63
2018-02-21T10:56:53.400Z,99828.06
2018-02-21T10:59:20.995Z,99823.23
2018-02-21T11:01:48.943Z,99832.14
2018-02-21T11:04:16.575Z,99828.06
2018-02-21T11:06:44.290Z,99824.46
2018-02-21T11:09:12.035Z,99836.00
2018-02-21T11:11:39.782Z,99827.09
2018-02-21T11:14:07.521Z,99822.23
2018-02-21T11:16:35.463Z,99820.12
2018-02-21T11:19:03.332Z,99816.77
2018-02-21T11:21:30.913Z,99813.38
2018-02-21T11:23:58.571Z,99811.97
2018-02-21T11:26:26.142Z,99803.45
2018-02-21T11:28:53.827Z,99804.59
2018-02-21T11:31:21.498Z,99809.05
2018-02-21T11:33:49.210Z,99813.81
2018-02-21T11:36:16.797Z,99812.06
2018-02-21T11:38:44.468Z,99815.08
2018-02-21T11:41:12.043Z,99811.34
2018-02-21T11:43:39.761Z,99816.47
2018-02-21T11:46:07.525Z,99812.34
2018-02-21T11:48:35.352Z,99815.16
2018-02-21T11:51:03.067Z,99812.75
2018-02-21T11:53:30.730Z,99804.74
2018-02-21T11:55:58.363Z,99804.27
2018-02-21T11:58:26.002Z,99807.63
2018-02-21T12:00:53.633Z,99803.13
2018-02-21T12:03:21.289Z,99804.18
2018-02-21T12:05:48.855Z,99805.73
2018-02-21T12:08:16.487Z,99799.90
2018-02-21T12:10:44.145Z,99805.66
2018-02-21T12:13:11.771Z,99800.64
2018-02-21T12:15:39.393Z,99798.36
2018-02-21T12:18:06.962Z,99799.41
2018-02-21T12:20:34.556Z,99803.48
2018-02-21T12:23:02.239Z,99803.26
2018-02-21T12:25:29.857Z,99794.87
2018-02-21T12:27:57.482Z,99794.89
2018-02-21T12:30:25.107Z,99798.80
2018-02-21T12:32:58.466Z,99797.77
2018-02-21T12:35:26.094Z,99799.71
2018-02-21T12:37:53.657Z,99810.14
2018-02-21T12:40:27.055Z,99806.20
2018-02-21T12:42:54.628Z,99804.95
2018-02-21T12:45:22.204Z,99799.45
2018-02-21T12:47:49.826Z,99806.55
2018-02-21T12:50:17.546Z,99796.05
2018-02-21T12:52:45.096Z,99797.28
2018-02-21T12:55:12.783Z,99800.45
2018-02-21T12:57:40.351Z,99794.93
2018-02-21T13:00:07.930Z,99791.52
2018-02-21T13:02:35.548Z,99805.22
2018-02-21T13:05:03.167Z,99792.44
2018-02-21T13:07:30.734Z,99792.58
2018-02-21T13:09:58.459Z,99793.70
2018-02-21T13:12:26.031Z,99795.73
2018-02-21T13:14:53.752Z,99795.75
2018-02-21T13:17:21.374Z,99796.38
2018-02-21T13:19:48.932Z,99797.02
2018-02-21T13:22:16.595Z,99788.23
2018-02-21T13:24:44.237Z,99784.80
2018-02-21T13:27:11.802Z,99791.89
2018-02-21T13:29:39.362Z,99785.16
2018-02-21T13:32:06.997Z,99784.16
2018-02-21T13:34:35.130Z,99778.74
2018-02-21T13:37:02.716Z,99780.94
2018-02-21T13:39:30.415Z,99785.00
2018-02-21T13:41:58.097Z,99792.80
2018-02-21T13:44:25.664Z,99788.42
2018-02-21T13:46:53.275Z,99786.47
2018-02-21T13:49:20.838Z,99780.51
2018-02-21T13:51:48.464Z,99780.80
2018-02-21T13:54:16.160Z,99783.42
2018-02-21T13:56:43.758Z,99777.27
2018-02-21T13:59:11.327Z,99784.22
2018-02-21T14:01:39.021Z,99781.84
2018-02-21T14:04:06.663Z,99787.41
2018-02-21T14:06:34.275Z,99778.25
2018-02-21T14:09:02.005Z,99779.75
2018-02-21T14:11:29.635Z,99788.31
2018-02-21T14:13:57.200Z,99789.94
2018-02-21T14:16:24.894Z,99781.59
2018-02-21T14:18:52.469Z,99788.11
2018-02-21T14:21:20.049Z,99782.77
2018-02-21T14:23:47.793Z,99784.95
2018-02-21T14:26:15.374Z,99781.59
2018-02-21T14:28:42.943Z,99789.41
2018-02-21T14:31:10.634Z,99789.89
2018-02-21T14:33:38.211Z,99791.16
2018-02-21T14:36:05.821Z,99791.30
2018-02-21T14:38:33.495Z,99787.27
2018-02-21T14:41:01.069Z,99787.23
2018-02-21T14:43:28.702Z,99791.38
2018-02-21T14:45:56.384Z,99782.73
2018-02-21T14:48:23.985Z,99795.42
2018-02-21T14:50:51.634Z,99792.96
2018-02-21T14:53:19.275Z,99800.94
2018-02-21T14:55:46.964Z,99785.68
2018-02-21T14:58:14.600Z,99793.08
2018-02-21T15:00:42.284Z,99795.05
2018-02-21T15:03:09.850Z,99788.20
2018-02-21T15:05:37.963Z,99787.47
2018-02-21T15:08:05.655Z,99790.70
2018-02-21T15:10:33.235Z,99789.78
2018-02-21T15:13:00.818Z,99790.17
2018-02-21T15:15:28.474Z,99794.41
2018-02-21T15:17:56.103Z,99780.21
2018-02-21T15:20:23.737Z,99790.14
2018-02-21T15:22:51.384Z,99787.41
2018-02-21T15:25:18.964Z,99786.24
2018-02-21T15:27:46.540Z,99789.92
2018-02-21T15:30:14.291Z,99786.59
2018-02-21T15:32:41.868Z,99788.66
2018-02-21T15:35:09.448Z,99787.58
2018-02-21T15:37:37.135Z,99798.34
2018-02-21T15:40:04.795Z,99801.30
2018-02-21T15:42:32.395Z,99808.97
2018-02-21T15:45:00.094Z,99806.62
2018-02-21T15:47:27.703Z,99807.39
2018-02-21T15:49:55.448Z,99809.08
2018-02-21T15:52:23.251Z,99814.76
2018-02-21T15:54:50.885Z,99812.33
2018-02-21T15:57:18.626Z,99813.84
2018-02-21T15:59:47.410Z,99818.86
2018-02-21T16:02:15.107Z,99816.44
2018-02-21T16:04:42.833Z,99815.17
2018-02-21T16:07:14.694Z,99817.17
2018-02-21T16:09:42.280Z,99825.52
2018-02-21T16:12:09.927Z,99827.58
2018-02-21T16:14:37.550Z,99827.09
2018-02-21T16:17:05.175Z,99821.61
2018-02-21T16:19:32.807Z,99820.48
2018-02-21T16:22:00.478Z,99812.71
2018-02-21T16:24:28.074Z,99813.62
2018-02-21T16:26:55.708Z,99806.53
2018-02-21T16:29:23.406Z,99815.52
2018-02-21T16:31:50.971Z,99820.09
2018-02-21T16:34:18.557Z,99822.27
2018-02-21T16:36:46.215Z,99817.02
2018-02-21T16:39:13.802Z,99826.61
2018-02-21T16:41:41.452Z,99831.41
2018-02-21T16:44:09.190Z,99832.72
2018-02-21T16:46:36.840Z,99839.40
2018-02-21T16:49:04.419Z,99838.91
2018-02-21T16:51:32.175Z,99838.20
2018-02-21T16:54:05.568Z,99829.59
2018-02-21T16:56:33.208Z,99833.02
2018-02-21T16:59:00.840Z,99832.73
2018-02-21T17:01:28.414Z,99835.88
2018-02-21T17:03:56.106Z,99836.58
2018-02-21T17:06:23.671Z,99836.27
2018-02-21T17:08:51.240Z,99836.59
2018-02-21T17:11:18.868Z,99837.01
2018-02-21T17:13:46.440Z,99837.09
2018-02-21T17:16:14.068Z,99834.64
2018-02-21T17:18:41.703Z,99836.25
2018-02-21T17:21:09.270Z,99838.78
2018-02-21T17:23:36.849Z,99840.58
2018-02-21T17:26:04.476Z,99838.22
2018-02-21T17:28:32.110Z,99841.91
2018-02-21T17:30:59.682Z,99842.84
2018-02-21T17:33:27.298Z,99841.10
2018-02-21T17:35:54.939Z,99837.53
2018-02-21T17:38:22.571Z,99841.30
2018-02-21T17:40:55.692Z,99839.95
2018-02-21T17:43:23.503Z,99844.51
2018-02-21T17:45:51.195Z,99847.32
2018-02-21T17:48:18.899Z,99853.89
2018-02-21T17:50:46.474Z,99854.13
2018-02-21T17:53:14.062Z,99859.16
2018-02-21T17:55:41.766Z,99865.98
2018-02-21T17:58:09.375Z,99864.08
2018-02-21T18:00:36.976Z,99868.00
2018-02-21T18:03:04.638Z,99869.20
2018-02-21T18:05:32.203Z,99868.55
2018-02-21T18:07:59.786Z,99867.56
2018-02-21T18:10:27.423Z,99868.22
2018-02-21T18:12:55.051Z,99869.25
2018-02-21T18:15:22.623Z,99871.56
2018-02-21T18:17:50.307Z,99866.47
2018-02-21T18:20:17.870Z,99871.92
2018-02-21T18:22:45.498Z,99873.53
2018-02-21T18:25:13.124Z,99862.17
2018-02-21T18:27:40.754Z,99860.44
2018-02-21T18:30:08.383Z,99858.20
2018-02-21T18:32:36.070Z,99857.15
2018-02-21T18:35:03.649Z,99863.02
2018-02-21T18:37:31.223Z,99862.97
2018-02-21T18:39:58.841Z,99865.96
2018-02-21T18:42:26.410Z,99861.91
2018-02-21T18:44:54.011Z,99861.27
2018-02-21T18:47:21.699Z,99864.21
2018-02-21T18:49:49.280Z,99858.33
2018-02-21T18:52:16.863Z,99867.42
2018-02-21T18:54:44.486Z,99861.81
2018-02-21T18:57:12.120Z,99863.45
2018-02-21T18:59:39.732Z,99856.66
2018-02-21T19:02:07.420Z,99852.56
2018-02-21T19:04:34.991Z,99854.88
2018-02-21T19:07:02.601Z,99844.25
2018-02-21T19:09:30.248Z,99844.93
2018-02-21T19:11:57.879Z,99847.75
2018-02-21T19:14:25.462Z,99844.59
2018-02-21T19:16:53.083Z,99846.43
2018-02-21T19:19:20.641Z,99848.30
2018-02-21T19:21:48.274Z,99850.61
2018-02-21T19:24:16.000Z,99849.08
2018-02-21T19:26:43.576Z,99849.08
2018-02-21T19:29:11.206Z,99839.27
2018-02-21T19:31:38.822Z,99842.42
2018-02-21T19:37:04.535Z,99853.64
2018-02-21T19:39:32.129Z,99851.03
2018-02-21T19:41:59.767Z,99852.09
2018-02-21T19:44:27.401Z,99847.95
2018-02-21T19:46:54.966Z,99856.52
2018-02-21T19:49:22.534Z,99860.64
2018-02-21T19:51:50.170Z,99856.45
2018-02-21T19:54:17.803Z,99852.44
2018-02-21T19:56:45.382Z,99854.00
2018-02-21T19:59:13.010Z,99853.98
2018-02-21T20:01:40.663Z,99853.89
2018-02-21T20:04:08.227Z,99852.98
2018-02-21T20:06:35.915Z,99861.21
2018-02-21T20:09:03.608Z,99862.46
2018-02-21T20:11:31.183Z,99863.16
2018-02-21T20:13:58.863Z,99855.11
2018-02-21T20:16:26.441Z,99848.09
2018-02-21T20:18:54.067Z,99852.01
2018-02-21T20:21:21.715Z,99849.92
2018-02-21T20:23:49.342Z,99849.85
2018-02-21T20:26:16.925Z,99846.90
2018-02-21T20:28:44.562Z,99844.73
2018-02-21T20:31:12.125Z,99852.30
2018-02-21T20:33:39.686Z,99846.01
2018-02-21T20:36:07.297Z,99847.39
2018-02-21T20:38:34.871Z,99852.45
2018-02-21T20:41:02.495Z,99848.86
2018-02-21T20:43:30.128Z,99849.66
2018-02-21T20:45:57.755Z,99846.64
2018-02-21T20:48:25.406Z,99845.95
2018-02-21T20:50:53.035Z,99845.80
2018-02-21T20:53:20.597Z,99847.11
2018-02-21T20:55:48.142Z,99840.09
2018-02-21T20:58:15.820Z,99842.77
2018-02-21T21:00:43.464Z,99842.20
2018-02-21T21:03:11.026Z,99839.96
2018-02-21T21:05:38.629Z,99842.77
2018-02-21T21:08:06.256Z,99837.25
2018-02-21T21:10:33.819Z,99846.98
2018-02-21T21:13:01.460Z,99845.86
2018-02-21T21:15:29.026Z,99841.03
2018-02-21T21:17:56.590Z,99835.36
2018-02-21T21:20:24.332Z,99840.41
2018-02-21T21:22:51.962Z,99841.95
2018-02-21T21:25:19.642Z,99841.72
2018-02-21T21:27:47.265Z,99840.94
2018-02-21T21:30:14.827Z,99845.37
2018-02-21T21:32:42.400Z,99843.82
2018-02-21T21:35:10.027Z,99840.94
2018-02-21T21:37:37.651Z,99845.16
2018-02-21T21:40:05.219Z,99842.93
2018-02-21T21:42:32.898Z,99847.61
2018-02-21T21:45:00.465Z,99845.43
2018-02-21T21:47:28.044Z,99845.59
2018-02-21T21:49:55.687Z,99843.41
2018-02-21T21:52:23.268Z,99842.69
2018-02-21T21:54:50.883Z,99846.83
2018-02-21T21:57:18.563Z,99842.49
2018-02-21T21:59:46.126Z,99846.08
2018-02-21T22:02:13.690Z,99843.91
2018-02-21T22:04:41.308Z,99849.50
2018-02-21T22:07:08.872Z,99844.27
2018-02-21T22:09:36.502Z,99843.77
2018-02-21T22:12:04.108Z,99840.25
2018-02-21T22:14:31.729Z,99845.64
2018-02-21T22:16:59.298Z,99841.02
2018-02-21T22:19:26.914Z,99847.05
2018-02-21T22:21:54.655Z,99849.37
2018-02-21T22:24:22.280Z,99844.73
2018-02-21T22:26:49.932Z,99838.78
2018-02-21T22:29:17.564Z,99841.36
2018-02-21T22:31:45.140Z,99849.58
2018-02-21T22:34:12.778Z,99847.53
2018-02-21T22:36:40.345Z,99844.11
2018-02-21T22:39:07.961Z,99840.47
2018-02-21T22:41:35.655Z,99849.77
2018-02-21T22:44:03.221Z,99843.95
2018-02-21T22:46:30.794Z,99851.66
2018-02-21T22:48:58.423Z,99849.23
2018-02-21T22:51:26.020Z,99844.94
2018-02-21T22:53:53.594Z,99841.10
2018-02-21T22:56:21.268Z,99840.67
2018-02-21T22:58:48.830Z,99839.13
2018-02-21T23:01:16.459Z,99843.60
2018-02-21T23:03:44.084Z,99840.63
2018-02-21T23:06:11.707Z,99838.23
2018-02-21T23:08:39.303Z,99847.13
2018-02-21T23:14:05.011Z,99835.97
2018-02-21T23:16:32.650Z,99838.52
2018-02-21T23:19:00.222Z,99836.34
2018-02-21T23:21:27.783Z,99836.19
2018-02-21T23:23:55.410Z,99836.90
2018-02-21T23:26:22.980Z,99835.63
2018-02-21T23:28:50.545Z,99837.45
2018-02-21T23:31:18.166Z,99833.55
2018-02-21T23:33:45.739Z,99833.53
2018-02-21T23:36:13.307Z,99829.20
2018-02-21T23:38:40.942Z,99825.33
2018-02-21T23:41:08.621Z,99817.99
2018-02-21T23:43:36.234Z,99820.66
2018-02-21T23:46:03.926Z,99815.75
2018-02-21T23:48:31.503Z,99817.48
2018-02-21T23:50:59.067Z,99817.42
2018-02-21T23:53:26.776Z,99811.67
2018-02-21T23:55:54.398Z,99816.44
2018-02-21T23:58:21.976Z,99823.38
